createdAt,value
2017-09-24T00:00:54.894Z,92.80
2017-09-24T00:03:23.281Z,92.60
2017-09-24T00:05:51.651Z,92.70
2017-09-24T00:08:20.048Z,92.90
2017-09-24T00:10:49.185Z,93.20
2017-09-24T00:13:17.590Z,93.20
2017-09-24T00:15:45.964Z,93.10
2017-09-24T00:18:14.334Z,93.30
2017-09-24T00:20:42.796Z,93.70
2017-09-24T00:23:11.265Z,93.70
2017-09-24T00:25:39.447Z,93.50
2017-09-24T00:28:07.808Z,93.90
2017-09-24T00:30:36.070Z,93.90
2017-09-24T00:33:04.425Z,94.00
2017-09-24T00:35:32.600Z,94.10
2017-09-24T00:38:01.740Z,94.30
2017-09-24T00:40:29.934Z,94.30
2017-09-24T00:42:57.967Z,94.40
2017-09-24T00:45:26.327Z,94.30
2017-09-24T00:47:54.710Z,94.10
2017-09-24T00:50:23.322Z,94.10
2017-09-24T00:52:51.727Z,94.00
2017-09-24T00:55:19.413Z,94.10
2017-09-24T00:57:47.399Z,94.10
2017-09-24T01:00:15.093Z,94.10
2017-09-24T01:02:43.458Z,94.00
2017-09-24T01:05:11.852Z,94.20
2017-09-24T01:07:40.390Z,94.20
2017-09-24T01:10:08.839Z,94.40
2017-09-24T01:12:37.196Z,94.20
2017-09-24T01:15:05.218Z,94.30
2017-09-24T01:17:33.601Z,94.20
2017-09-24T01:20:01.642Z,94.30
2017-09-24T01:22:30.062Z,94.30
2017-09-24T01:24:58.306Z,94.30
2017-09-24T01:27:26.787Z,94.20
2017-09-24T01:29:55.570Z,94.20
2017-09-24T01:32:23.598Z,94.10
2017-09-24T01:34:51.622Z,94.20
2017-09-24T01:37:19.666Z,94.20
2017-09-24T01:39:48.021Z,94.20
2017-09-24T01:42:17.199Z,94.00
2017-09-24T01:44:45.214Z,94.00
2017-09-24T01:47:13.602Z,94.20
2017-09-24T01:49:41.651Z,94.20
2017-09-24T01:52:09.668Z,94.20
2017-09-24T01:54:37.893Z,94.20
2017-09-24T01:57:05.568Z,94.10
2017-09-24T01:59:33.596Z,94.20
2017-09-24T02:02:01.971Z,93.80
2017-09-24T02:04:30.401Z,93.80
2017-09-24T02:06:58.769Z,93.70
2017-09-24T02:09:27.139Z,93.60
2017-09-24T02:11:56.226Z,93.90
2017-09-24T02:14:25.005Z,94.00
2017-09-24T02:16:53.364Z,94.20
2017-09-24T02:19:21.736Z,94.20
2017-09-24T02:21:50.437Z,94.10
2017-09-24T02:24:18.818Z,94.20
2017-09-24T02:26:47.205Z,94.20
2017-09-24T02:29:15.591Z,94.00
2017-09-24T02:31:43.770Z,94.00
2017-09-24T02:34:12.147Z,94.00
2017-09-24T02:36:40.513Z,93.90
2017-09-24T02:39:08.886Z,93.60
2017-09-24T02:41:37.262Z,93.50
2017-09-24T02:44:05.441Z,93.50
2017-09-24T02:46:34.489Z,93.10
2017-09-24T02:49:02.871Z,93.30
2017-09-24T02:51:31.234Z,93.10
2017-09-24T02:54:00.371Z,93.00
2017-09-24T02:56:28.726Z,92.90
2017-09-24T02:58:57.091Z,92.90
2017-09-24T03:01:25.466Z,93.00
2017-09-24T03:03:53.891Z,93.10
2017-09-24T03:06:22.366Z,93.10
2017-09-24T03:08:50.743Z,93.20
2017-09-24T03:11:19.121Z,93.50
2017-09-24T03:13:47.154Z,93.30
2017-09-24T03:16:15.722Z,93.70
2017-09-24T03:18:44.087Z,93.60
2017-09-24T03:21:12.551Z,93.70
2017-09-24T03:23:40.904Z,94.10
2017-09-24T03:26:09.291Z,93.90
2017-09-24T03:28:39.164Z,93.80
2017-09-24T03:31:07.540Z,93.80
2017-09-24T03:33:36.105Z,94.40
2017-09-24T03:36:04.472Z,94.00
2017-09-24T03:38:32.842Z,94.00
2017-09-24T03:41:01.995Z,93.60
2017-09-24T03:43:30.378Z,93.60
2017-09-24T03:45:59.558Z,93.40
2017-09-24T03:48:28.002Z,93.40
2017-09-24T03:50:56.395Z,93.40
2017-09-24T03:53:24.782Z,93.40
2017-09-24T03:55:53.137Z,93.10
2017-09-24T03:58:21.509Z,93.20
2017-09-24T04:00:49.879Z,93.00
2017-09-24T04:03:18.250Z,93.20
2017-09-24T04:05:46.613Z,93.30
2017-09-24T04:08:15.009Z,93.20
2017-09-24T04:10:43.573Z,93.10
2017-09-24T04:13:11.938Z,93.20
2017-09-24T04:15:41.086Z,92.90
2017-09-24T04:18:09.471Z,92.90
2017-09-24T04:20:37.838Z,93.00
2017-09-24T04:23:06.220Z,93.00
2017-09-24T04:25:34.583Z,92.90
2017-09-24T04:28:02.950Z,92.70
2017-09-24T04:30:31.335Z,92.50
2017-09-24T04:32:59.729Z,92.50
2017-09-24T04:35:28.133Z,92.70
2017-09-24T04:37:57.632Z,92.90
2017-09-24T04:40:26.227Z,92.90
2017-09-24T04:42:54.631Z,92.40
2017-09-24T04:45:23.208Z,92.40
2017-09-24T04:47:51.592Z,92.30
2017-09-24T04:50:19.956Z,92.20
2017-09-24T04:52:48.319Z,92.30
2017-09-24T04:55:16.683Z,92.30
2017-09-24T04:57:45.814Z,92.40
2017-09-24T05:00:14.199Z,92.40
2017-09-24T05:02:42.759Z,92.70
2017-09-24T05:05:11.350Z,92.70
2017-09-24T05:07:39.708Z,92.30
2017-09-24T05:10:08.202Z,92.50
2017-09-24T05:12:36.599Z,92.70
2017-09-24T05:15:05.152Z,92.30
2017-09-24T05:17:33.529Z,92.30
2017-09-24T05:20:01.893Z,92.20
2017-09-24T05:22:30.258Z,92.30
2017-09-24T05:24:58.639Z,92.30
2017-09-24T05:27:27.133Z,92.00
2017-09-24T05:29:55.490Z,92.30
2017-09-24T05:32:23.531Z,92.90
2017-09-24T05:34:51.718Z,93.40
2017-09-24T05:37:20.123Z,93.60
2017-09-24T05:39:48.469Z,93.10
2017-09-24T05:42:17.613Z,92.70
2017-09-24T05:44:45.975Z,92.60
2017-09-24T05:47:14.387Z,93.10
2017-09-24T05:49:42.762Z,93.10
2017-09-24T05:52:11.303Z,93.00
2017-09-24T05:54:39.750Z,93.10
2017-09-24T05:57:08.154Z,93.00
2017-09-24T05:59:36.521Z,92.80
2017-09-24T06:02:04.896Z,92.80
2017-09-24T06:04:33.267Z,92.70
2017-09-24T06:07:01.868Z,93.00
2017-09-24T06:09:30.240Z,92.80
2017-09-24T06:11:58.632Z,92.80
2017-09-24T06:14:27.659Z,92.90
2017-09-24T06:16:56.044Z,92.90
2017-09-24T06:19:24.446Z,92.80
2017-09-24T06:21:52.801Z,92.70
2017-09-24T06:24:21.212Z,92.70
2017-09-24T06:26:49.590Z,92.70
2017-09-24T06:29:17.956Z,92.70
2017-09-24T06:31:46.349Z,92.00
2017-09-24T06:34:14.768Z,92.50
2017-09-24T06:36:44.148Z,92.50
2017-09-24T06:39:12.523Z,92.80
2017-09-24T06:41:40.917Z,92.50
2017-09-24T06:44:10.095Z,92.60
2017-09-24T06:46:38.508Z,92.70
2017-09-24T06:49:06.873Z,92.40
2017-09-24T06:51:35.266Z,92.60
2017-09-24T06:54:03.670Z,92.50
2017-09-24T06:56:32.071Z,92.60
2017-09-24T06:59:00.490Z,92.60
2017-09-24T07:01:29.136Z,92.20
2017-09-24T07:03:57.533Z,92.70
2017-09-24T07:06:25.910Z,92.80
2017-09-24T07:08:54.289Z,92.90
2017-09-24T07:11:23.492Z,93.60
2017-09-24T07:13:51.904Z,93.50
2017-09-24T07:16:20.429Z,93.70
2017-09-24T07:18:48.821Z,93.50
2017-09-24T07:21:17.455Z,93.60
2017-09-24T07:23:45.833Z,93.50
2017-09-24T07:26:15.326Z,93.40
2017-09-24T07:28:43.714Z,93.60
2017-09-24T07:31:11.973Z,93.30
2017-09-24T07:33:40.353Z,93.20
2017-09-24T07:36:08.729Z,92.90
2017-09-24T07:38:37.112Z,92.80
2017-09-24T07:41:05.580Z,92.40
2017-09-24T07:43:33.942Z,92.70
2017-09-24T07:46:02.404Z,92.60
2017-09-24T07:48:30.802Z,92.50
2017-09-24T07:50:59.229Z,92.40
2017-09-24T07:53:29.140Z,92.20
2017-09-24T07:55:57.547Z,92.20
2017-09-24T07:58:25.995Z,92.10
2017-09-24T08:00:54.384Z,91.90
2017-09-24T08:03:22.766Z,91.50
2017-09-24T08:05:51.127Z,92.00
2017-09-24T08:08:21.010Z,92.10
2017-09-24T08:10:49.396Z,92.10
2017-09-24T08:13:18.054Z,92.10
2017-09-24T08:15:46.417Z,92.30
2017-09-24T08:18:15.108Z,92.10
2017-09-24T08:20:44.898Z,92.20
2017-09-24T08:23:13.297Z,92.20
2017-09-24T08:25:41.693Z,92.20
2017-09-24T08:28:10.969Z,92.40
2017-09-24T08:30:39.414Z,92.40
2017-09-24T08:33:07.779Z,92.30
2017-09-24T08:35:36.177Z,92.20
2017-09-24T08:38:05.323Z,92.30
2017-09-24T08:40:33.771Z,92.20
2017-09-24T08:43:02.163Z,92.10
2017-09-24T08:45:30.617Z,91.90
2017-09-24T08:47:58.990Z,91.90
2017-09-24T08:50:27.178Z,91.70
2017-09-24T08:52:55.565Z,91.70
2017-09-24T08:55:23.941Z,91.50
2017-09-24T08:57:52.375Z,91.10
2017-09-24T09:00:20.758Z,91.30
2017-09-24T09:02:49.139Z,91.40
2017-09-24T09:05:17.503Z,91.40
2017-09-24T09:07:45.866Z,91.40
2017-09-24T09:10:14.229Z,91.10
2017-09-24T09:12:42.656Z,90.90
2017-09-24T09:15:11.035Z,90.70
2017-09-24T09:17:39.614Z,90.70
2017-09-24T09:20:07.991Z,90.90
2017-09-24T09:22:36.418Z,90.70
2017-09-24T09:25:04.777Z,90.70
2017-09-24T09:27:33.165Z,90.60
2017-09-24T09:30:01.538Z,90.70
2017-09-24T09:32:42.082Z,90.50
2017-09-24T09:35:20.155Z,90.30
2017-09-24T09:37:48.549Z,90.20
2017-09-24T09:40:16.748Z,89.60
2017-09-24T09:42:44.944Z,89.50
2017-09-24T09:45:24.523Z,89.20
2017-09-24T09:47:52.904Z,88.70
2017-09-24T09:50:21.133Z,89.10
2017-09-24T09:52:49.498Z,89.00
2017-09-24T09:55:17.862Z,88.90
2017-09-24T09:57:46.246Z,88.10
2017-09-24T10:00:14.598Z,87.60
2017-09-24T10:02:42.960Z,87.60
2017-09-24T10:05:11.340Z,87.30
2017-09-24T10:07:50.904Z,87.10
2017-09-24T10:10:19.316Z,85.90
2017-09-24T10:12:47.746Z,86.60
2017-09-24T10:15:15.980Z,86.30
2017-09-24T10:17:44.305Z,85.10
2017-09-24T10:20:13.285Z,85.10
2017-09-24T10:22:41.458Z,85.00
2017-09-24T10:25:10.304Z,84.90
2017-09-24T10:27:38.672Z,84.30
2017-09-24T10:30:18.429Z,84.20
2017-09-24T10:32:46.615Z,83.70
2017-09-24T10:35:17.057Z,83.10
2017-09-24T10:37:45.439Z,83.20
2017-09-24T10:40:13.801Z,83.70
2017-09-24T10:42:41.991Z,83.10
2017-09-24T10:45:10.403Z,82.10
2017-09-24T10:47:38.795Z,81.70
2017-09-24T10:50:07.278Z,82.10
2017-09-24T10:52:35.679Z,82.20
2017-09-24T10:55:04.057Z,81.20
2017-09-24T10:57:32.454Z,80.40
2017-09-24T11:00:00.829Z,79.40
2017-09-24T11:02:29.237Z,79.70
2017-09-24T11:04:57.509Z,80.00
2017-09-24T11:07:25.744Z,80.00
2017-09-24T11:09:54.147Z,80.00
2017-09-24T11:12:22.531Z,79.40
2017-09-24T11:14:50.892Z,79.90
2017-09-24T11:17:19.266Z,78.70
2017-09-24T11:19:47.802Z,78.70
2017-09-24T11:22:16.167Z,78.40
2017-09-24T11:24:44.337Z,78.30
2017-09-24T11:27:12.724Z,77.70
2017-09-24T11:29:41.220Z,78.00
2017-09-24T11:32:09.789Z,77.40
2017-09-24T11:34:38.187Z,77.00
2017-09-24T11:37:06.584Z,77.10
2017-09-24T11:39:34.951Z,77.40
2017-09-24T11:42:03.330Z,77.40
2017-09-24T11:44:31.717Z,77.10
2017-09-24T11:47:00.128Z,77.70
2017-09-24T11:49:28.704Z,77.10
2017-09-24T11:51:58.020Z,76.30
2017-09-24T11:54:26.485Z,75.90
2017-09-24T11:56:55.015Z,75.70
2017-09-24T11:59:23.397Z,75.60
2017-09-24T12:01:51.609Z,74.00
2017-09-24T12:04:20.160Z,73.90
2017-09-24T12:06:48.566Z,73.10
2017-09-24T12:09:16.927Z,72.70
2017-09-24T12:11:45.396Z,71.40
2017-09-24T12:14:14.535Z,69.40
2017-09-24T12:16:42.889Z,69.40
2017-09-24T12:19:11.281Z,69.70
2017-09-24T12:21:39.647Z,70.50
2017-09-24T12:24:08.048Z,71.30
2017-09-24T12:26:36.418Z,70.50
2017-09-24T12:29:04.976Z,70.00
2017-09-24T12:31:33.158Z,67.50
2017-09-24T12:34:01.535Z,68.50
2017-09-24T12:36:29.901Z,68.20
2017-09-24T12:38:58.290Z,68.70
2017-09-24T12:41:26.852Z,67.40
2017-09-24T12:43:56.004Z,65.90
2017-09-24T12:46:24.364Z,66.40
2017-09-24T12:48:52.768Z,66.00
2017-09-24T12:51:21.277Z,64.10
2017-09-24T12:53:49.669Z,64.50
2017-09-24T12:56:18.056Z,64.80
2017-09-24T12:58:46.439Z,65.30
2017-09-24T13:01:14.831Z,65.30
2017-09-24T13:03:43.244Z,64.80
2017-09-24T13:06:12.426Z,63.70
2017-09-24T13:08:40.809Z,63.70
2017-09-24T13:11:09.167Z,63.70
2017-09-24T13:13:37.594Z,63.30
2017-09-24T13:16:06.266Z,59.80
2017-09-24T13:18:34.750Z,58.30
2017-09-24T13:21:03.121Z,58.80
2017-09-24T13:23:31.509Z,58.30
2017-09-24T13:26:00.118Z,58.20
2017-09-24T13:28:28.478Z,57.80
2017-09-24T13:30:56.869Z,57.40
2017-09-24T13:33:25.269Z,56.90
2017-09-24T13:35:53.670Z,57.00
2017-09-24T13:38:22.830Z,58.90
2017-09-24T13:40:51.211Z,58.90
2017-09-24T13:43:19.581Z,59.10
2017-09-24T13:45:47.960Z,57.10
2017-09-24T13:48:16.327Z,57.20
2017-09-24T13:50:45.092Z,56.70
2017-09-24T13:53:12.770Z,57.50
2017-09-24T13:55:41.172Z,56.80
2017-09-24T13:58:09.566Z,57.80
2017-09-24T14:00:37.928Z,58.00
2017-09-24T14:03:06.303Z,56.30
2017-09-24T14:05:34.659Z,56.50
2017-09-24T14:08:03.038Z,56.60
2017-09-24T14:10:31.463Z,56.70
2017-09-24T14:12:59.825Z,57.80
2017-09-24T14:15:28.418Z,57.40
2017-09-24T14:17:56.798Z,57.60
2017-09-24T14:20:25.246Z,57.90
2017-09-24T14:22:53.647Z,56.80
2017-09-24T14:25:21.350Z,57.50
2017-09-24T14:27:49.731Z,56.30
2017-09-24T14:30:18.871Z,56.00
2017-09-24T14:32:47.952Z,56.20
2017-09-24T14:35:16.572Z,56.80
2017-09-24T14:37:44.929Z,56.00
2017-09-24T14:40:13.319Z,55.80
2017-09-24T14:42:41.691Z,56.00
2017-09-24T14:45:09.887Z,55.90
2017-09-24T14:47:38.530Z,55.60
2017-09-24T14:50:07.114Z,55.70
2017-09-24T14:52:35.955Z,55.40
2017-09-24T14:55:05.194Z,55.50
2017-09-24T14:57:33.580Z,55.70
2017-09-24T15:00:01.977Z,55.40
2017-09-24T15:02:30.362Z,55.20
2017-09-24T15:04:58.796Z,54.80
2017-09-24T15:07:26.991Z,55.50
2017-09-24T15:09:55.203Z,56.50
2017-09-24T15:12:23.436Z,57.70
2017-09-24T15:14:51.637Z,58.50
2017-09-24T15:17:19.327Z,59.40
2017-09-24T15:19:47.128Z,60.70
2017-09-24T15:22:15.167Z,60.90
2017-09-24T15:24:43.538Z,61.10
2017-09-24T15:27:11.986Z,60.00
2017-09-24T15:29:40.162Z,60.00
2017-09-24T15:32:08.583Z,59.40
2017-09-24T15:34:36.941Z,59.70
2017-09-24T15:37:05.534Z,58.90
2017-09-24T15:39:33.905Z,59.00
2017-09-24T15:42:02.278Z,59.30
2017-09-24T15:44:30.673Z,59.30
2017-09-24T15:46:59.042Z,59.60
2017-09-24T15:49:27.415Z,60.20
2017-09-24T15:51:55.898Z,60.00
2017-09-24T15:54:24.266Z,59.40
2017-09-24T15:56:52.650Z,59.00
2017-09-24T15:59:21.121Z,59.60
2017-09-24T16:01:49.937Z,60.70
2017-09-24T16:04:18.297Z,60.40
2017-09-24T16:06:46.667Z,60.50
2017-09-24T16:09:15.090Z,60.80
2017-09-24T16:11:43.269Z,60.60
2017-09-24T16:14:12.214Z,60.90
2017-09-24T16:16:40.578Z,61.60
2017-09-24T16:19:09.167Z,60.50
2017-09-24T16:21:37.543Z,60.60
2017-09-24T16:24:05.913Z,60.90
2017-09-24T16:26:34.286Z,61.00
2017-09-24T16:29:02.771Z,61.60
2017-09-24T16:31:31.195Z,61.60
2017-09-24T16:33:59.379Z,61.70
2017-09-24T16:36:27.582Z,62.10
2017-09-24T16:38:55.790Z,62.30
2017-09-24T16:41:24.253Z,62.80
2017-09-24T16:43:52.442Z,63.10
2017-09-24T16:46:20.646Z,63.40
2017-09-24T16:48:49.811Z,63.50
2017-09-24T16:51:18.352Z,63.50
2017-09-24T16:53:46.709Z,63.30
2017-09-24T16:56:14.916Z,63.10
2017-09-24T16:58:43.299Z,63.80
2017-09-24T17:01:11.661Z,64.50
2017-09-24T17:03:39.862Z,64.70
2017-09-24T17:06:08.227Z,65.30
2017-09-24T17:08:36.602Z,65.20
2017-09-24T17:11:04.991Z,65.70
2017-09-24T17:13:33.427Z,65.80
2017-09-24T17:16:01.808Z,66.30
2017-09-24T17:18:30.182Z,66.80
2017-09-24T17:20:58.575Z,67.10
2017-09-24T17:23:26.960Z,67.80
2017-09-24T17:25:55.331Z,68.10
2017-09-24T17:28:23.529Z,68.60
2017-09-24T17:30:51.907Z,69.40
2017-09-24T17:33:20.088Z,69.80
2017-09-24T17:35:48.457Z,70.50
2017-09-24T17:38:16.832Z,71.00
2017-09-24T17:40:45.220Z,71.40
2017-09-24T17:43:13.632Z,71.80
2017-09-24T17:45:42.111Z,72.00
2017-09-24T17:48:10.467Z,72.20
2017-09-24T17:50:38.851Z,72.60
2017-09-24T17:53:07.199Z,72.90
2017-09-24T17:55:35.578Z,72.60
2017-09-24T17:58:04.351Z,72.30
2017-09-24T18:00:32.729Z,72.80
2017-09-24T18:03:01.110Z,73.00
2017-09-24T18:05:29.491Z,73.30
2017-09-24T18:07:58.825Z,73.80
2017-09-24T18:10:27.203Z,73.60
2017-09-24T18:12:55.653Z,73.80
2017-09-24T18:15:24.791Z,74.60
2017-09-24T18:17:53.029Z,74.60
2017-09-24T18:20:21.400Z,75.00
2017-09-24T18:22:50.557Z,75.50
2017-09-24T18:25:18.994Z,75.40
2017-09-24T18:27:47.351Z,76.50
2017-09-24T18:30:15.730Z,76.20
2017-09-24T18:32:44.955Z,76.60
2017-09-24T18:35:13.332Z,76.60
2017-09-24T18:37:41.793Z,76.80
2017-09-24T18:40:10.174Z,77.00
2017-09-24T18:42:38.790Z,77.10
2017-09-24T18:45:07.188Z,77.20
2017-09-24T18:47:36.166Z,77.80
2017-09-24T18:50:04.337Z,77.70
2017-09-24T18:52:32.526Z,78.00
2017-09-24T18:55:00.908Z,78.20
2017-09-24T18:57:29.313Z,78.20
2017-09-24T18:59:57.687Z,78.20
2017-09-24T19:02:26.076Z,78.40
2017-09-24T19:04:54.452Z,78.50
2017-09-24T19:07:24.541Z,79.10
2017-09-24T19:09:53.857Z,79.10
2017-09-24T19:12:22.242Z,79.00
2017-09-24T19:14:50.804Z,79.30
2017-09-24T19:17:19.395Z,79.10
2017-09-24T19:19:48.075Z,79.00
2017-09-24T19:22:16.530Z,79.20
2017-09-24T19:24:45.335Z,79.30
2017-09-24T19:27:13.820Z,79.30
2017-09-24T19:29:42.356Z,79.20
2017-09-24T19:32:10.876Z,79.60
2017-09-24T19:34:39.358Z,79.60
2017-09-24T19:37:07.761Z,79.40
2017-09-24T19:39:36.184Z,79.50
2017-09-24T19:42:04.585Z,79.60
2017-09-24T19:44:33.030Z,79.90
2017-09-24T19:47:01.229Z,79.90
2017-09-24T19:49:29.430Z,79.90
2017-09-24T19:51:57.606Z,79.60
2017-09-24T19:54:26.003Z,79.80
2017-09-24T19:56:54.216Z,79.80
2017-09-24T19:59:23.117Z,79.70
2017-09-24T20:01:51.564Z,79.80
2017-09-24T20:04:19.965Z,80.00
2017-09-24T20:06:48.356Z,80.00
2017-09-24T20:09:16.823Z,80.50
2017-09-24T20:11:45.203Z,80.70
2017-09-24T20:14:14.500Z,81.20
2017-09-24T20:16:42.891Z,81.10
2017-09-24T20:19:11.274Z,81.50
2017-09-24T20:21:39.649Z,81.50
2017-09-24T20:24:08.042Z,81.50
2017-09-24T20:26:38.119Z,81.80
2017-09-24T20:29:06.576Z,81.80
2017-09-24T20:31:34.995Z,81.90
2017-09-24T20:34:03.589Z,81.90
2017-09-24T20:36:32.031Z,82.10
2017-09-24T20:39:00.407Z,82.40
2017-09-24T20:41:28.777Z,82.80
2017-09-24T20:43:57.831Z,82.90
2017-09-24T20:46:26.224Z,83.50
2017-09-24T20:48:54.594Z,83.80
2017-09-24T20:51:23.927Z,84.90
2017-09-24T20:53:52.284Z,84.80
2017-09-24T20:56:20.642Z,85.50
2017-09-24T20:58:49.270Z,85.60
2017-09-24T21:01:17.638Z,85.70
2017-09-24T21:03:46.122Z,86.10
2017-09-24T21:06:14.505Z,86.50
2017-09-24T21:08:42.891Z,86.60
2017-09-24T21:11:11.276Z,86.60
2017-09-24T21:13:43.923Z,86.70
2017-09-24T21:16:12.309Z,87.00
2017-09-24T21:18:40.771Z,87.00
2017-09-24T21:21:09.131Z,87.00
2017-09-24T21:23:38.282Z,87.50
2017-09-24T21:26:06.828Z,87.40
2017-09-24T21:28:35.206Z,87.60
2017-09-24T21:31:03.575Z,87.70
2017-09-24T21:33:31.942Z,88.00
2017-09-24T21:36:00.564Z,88.00
2017-09-24T21:38:29.016Z,87.90
2017-09-24T21:40:58.068Z,88.10
2017-09-24T21:43:26.615Z,88.20
2017-09-24T21:45:54.986Z,88.30
2017-09-24T21:48:23.399Z,88.30
2017-09-24T21:50:51.849Z,88.50
2017-09-24T21:53:20.226Z,88.70
2017-09-24T21:55:48.600Z,89.00
2017-09-24T21:58:17.040Z,88.90
2017-09-24T22:00:45.727Z,89.30
2017-09-24T22:03:14.090Z,89.20
2017-09-24T22:05:42.477Z,89.30
2017-09-24T22:08:10.963Z,89.50
2017-09-24T22:10:39.369Z,89.50
2017-09-24T22:13:08.750Z,90.00
2017-09-24T22:15:37.123Z,90.00
2017-09-24T22:18:05.686Z,90.00
2017-09-24T22:20:34.165Z,90.00
2017-09-24T22:23:02.568Z,90.10
2017-09-24T22:25:31.165Z,90.20
2017-09-24T22:27:59.601Z,90.40
2017-09-24T22:30:28.000Z,90.50
2017-09-24T22:32:56.358Z,90.70
2017-09-24T22:35:24.738Z,90.60
2017-09-24T22:37:53.126Z,90.50
2017-09-24T22:40:21.518Z,90.50
2017-09-24T22:42:49.958Z,90.50
2017-09-24T22:45:18.330Z,90.60
2017-09-24T22:47:46.716Z,90.60
2017-09-24T22:50:15.317Z,90.70
2017-09-24T22:52:43.722Z,90.80
2017-09-24T22:55:12.249Z,90.90
2017-09-24T22:57:40.711Z,91.30
2017-09-24T23:00:09.089Z,90.80
2017-09-24T23:02:37.478Z,90.90
2017-09-24T23:05:05.868Z,91.10
2017-09-24T23:07:34.908Z,91.30
2017-09-24T23:10:03.279Z,91.40
2017-09-24T23:12:31.651Z,91.30
2017-09-24T23:15:00.040Z,91.30
2017-09-24T23:17:28.427Z,91.40
2017-09-24T23:19:57.392Z,91.50
2017-09-24T23:22:25.099Z,91.50
2017-09-24T23:24:53.451Z,91.60
2017-09-24T23:27:21.967Z,91.70
2017-09-24T23:29:50.480Z,91.90
2017-09-24T23:32:18.855Z,91.80
2017-09-24T23:34:48.725Z,92.10
2017-09-24T23:37:17.101Z,92.10
2017-09-24T23:39:45.476Z,92.20
2017-09-24T23:42:13.849Z,91.90
2017-09-24T23:44:42.231Z,91.90
2017-09-24T23:47:10.598Z,91.90
2017-09-24T23:49:39.040Z,92.10
2017-09-24T23:52:08.274Z,92.00
2017-09-24T23:54:36.717Z,92.10
2017-09-24T23:57:05.541Z,92.30
2017-09-24T23:59:33.909Z,92.40
